Time;durP1;ratioP1;P1;durP2;ratioP2;P2;SDS_P1;SDS_P2;PMS_P1;PMS_P2;Temp;Humidity;BMP_temperature;BMP_pressure;BME280_temperature;BME280_humidity;BME280_pressure;Samples;Min_cycle;Max_cycle;Signal;HPM_P1;HPM_P2
2023/04/24 00:02:48;;;;;;;3.80;2.63;;;14.70;99.90;;;;;;4956109;28;20113;-48
2023/04/24 00:05:34;;;;;;;3.10;2.78;;;14.60;99.90;;;;;;4965755;28;20054;-48
2023/04/24 00:08:20;;;;;;;3.42;2.58;;;14.70;99.90;;;;;;4975530;28;20038;-46
2023/04/24 00:11:06;;;;;;;3.50;2.60;;;14.70;99.90;;;;;;4972032;28;20106;-51
2023/04/24 00:13:52;;;;;;;3.90;2.40;;;14.60;99.90;;;;;;4972363;28;20041;-48
2023/04/24 00:16:37;;;;;;;2.90;2.53;;;14.60;99.90;;;;;;4982231;28;20049;-46
2023/04/24 00:19:23;;;;;;;5.72;2.33;;;14.50;99.90;;;;;;4968241;28;20046;-48
2023/04/24 00:22:10;;;;;;;4.72;2.45;;;14.50;99.90;;;;;;4967307;28;20074;-46
2023/04/24 00:24:56;;;;;;;2.30;2.10;;;14.50;99.90;;;;;;4975365;28;20030;-48
2023/04/24 00:27:42;;;;;;;2.40;2.00;;;14.50;99.90;;;;;;4975990;28;20027;-48
2023/04/24 00:30:28;;;;;;;3.65;2.40;;;14.30;99.90;;;;;;4968346;28;20097;-47
2023/04/24 00:33:14;;;;;;;3.55;2.60;;;14.30;99.90;;;;;;4974164;28;20039;-47
2023/04/24 00:36:00;;;;;;;3.78;2.30;;;14.30;99.90;;;;;;4974245;28;20034;-47
2023/04/24 00:38:46;;;;;;;2.38;2.10;;;14.30;99.90;;;;;;4974460;28;20019;-47
2023/04/24 00:41:32;;;;;;;2.53;2.20;;;14.20;99.90;;;;;;4973074;28;20373;-46
2023/04/24 00:44:18;;;;;;;2.78;2.00;;;14.20;99.90;;;;;;4975673;28;20532;-48
2023/04/24 00:47:04;;;;;;;2.40;2.20;;;14.10;99.90;;;;;;4968847;28;20023;-46
2023/04/24 00:49:50;;;;;;;2.25;2.00;;;14.20;99.90;;;;;;4972442;28;20373;-47
2023/04/24 00:52:36;;;;;;;2.95;2.03;;;14.30;99.90;;;;;;4971077;28;20395;-46
2023/04/24 00:55:22;;;;;;;3.65;2.17;;;14.20;99.90;;;;;;4973278;28;20177;-45
2023/04/24 00:58:08;;;;;;;2.25;1.88;;;14.10;99.90;;;;;;4971865;28;20023;-45
2023/04/24 01:00:57;;;;;;;3.22;2.10;;;13.90;99.90;;;;;;4973283;28;20034;-47
2023/04/24 01:03:43;;;;;;;1.95;1.75;;;13.90;99.90;;;;;;4972242;28;20048;-48
2023/04/24 01:06:30;;;;;;;3.05;2.08;;;13.80;99.90;;;;;;4969945;28;20137;-46
2023/04/24 01:09:18;;;;;;;2.95;1.70;;;13.80;99.90;;;;;;4972568;28;20031;-48
2023/04/24 01:12:04;;;;;;;1.70;1.55;;;13.80;99.90;;;;;;4971180;28;20065;-47
2023/04/24 01:14:50;;;;;;;1.80;1.70;;;13.90;99.90;;;;;;4970205;28;20042;-48
2023/04/24 01:17:36;;;;;;;3.38;1.90;;;14.00;99.90;;;;;;4976048;28;20035;-52
2023/04/24 01:20:24;;;;;;;1.73;1.58;;;13.90;99.90;;;;;;4974974;28;20038;-46
2023/04/24 01:23:10;;;;;;;2.22;2.00;;;13.90;99.90;;;;;;4969281;28;20056;-49
2023/04/24 01:25:56;;;;;;;4.15;2.80;;;13.90;99.90;;;;;;4972388;28;20035;-47
2023/04/24 01:28:42;;;;;;;4.55;3.15;;;13.80;99.90;;;;;;4971459;28;20550;-47
2023/04/24 01:31:29;;;;;;;4.60;3.78;;;13.80;99.90;;;;;;4969985;28;20030;-49
2023/04/24 01:34:16;;;;;;;2.40;1.85;;;13.80;99.90;;;;;;4969862;28;20028;-46
2023/04/24 01:37:02;;;;;;;1.98;1.77;;;13.80;99.90;;;;;;4968631;28;20519;-48
2023/04/24 01:39:48;;;;;;;3.63;2.15;;;13.80;99.90;;;;;;4971694;28;20027;-46
2023/04/24 01:42:35;;;;;;;2.75;2.30;;;13.80;99.90;;;;;;4972319;28;20063;-48
2023/04/24 01:45:21;;;;;;;2.13;1.92;;;13.80;99.90;;;;;;4965108;28;20027;-53
2023/04/24 01:48:07;;;;;;;2.60;2.10;;;13.80;99.90;;;;;;4971859;28;20038;-46
2023/04/24 01:50:53;;;;;;;3.40;2.40;;;13.80;99.90;;;;;;4972674;28;20027;-46
2023/04/24 01:53:39;;;;;;;1.90;1.80;;;13.80;99.90;;;;;;4953819;28;20496;-46
2023/04/24 01:56:27;;;;;;;5.32;3.97;;;13.80;99.90;;;;;;4954780;28;20058;-47
2023/04/24 01:59:14;;;;;;;6.72;4.97;;;13.70;99.90;;;;;;4971934;28;20027;-47
2023/04/24 02:02:00;;;;;;;3.05;2.42;;;13.70;99.90;;;;;;4966238;28;20030;-51
2023/04/24 02:04:46;;;;;;;2.45;2.20;;;13.80;99.90;;;;;;4972611;28;20570;-47
2023/04/24 02:07:32;;;;;;;2.70;2.40;;;13.60;99.90;;;;;;4972552;28;20508;-46
2023/04/24 02:10:18;;;;;;;3.13;1.98;;;13.60;99.90;;;;;;4972359;28;20444;-47
2023/04/24 02:13:04;;;;;;;2.92;2.22;;;13.60;99.90;;;;;;4971629;28;20141;-49
2023/04/24 02:15:50;;;;;;;3.97;2.25;;;13.50;99.90;;;;;;4972293;28;20035;-49
2023/04/24 02:18:36;;;;;;;2.30;2.10;;;13.50;99.90;;;;;;4971919;28;20027;-46
2023/04/24 02:21:22;;;;;;;4.85;3.85;;;13.40;99.90;;;;;;4972499;28;20142;-48
2023/04/24 02:24:08;;;;;;;3.78;2.40;;;13.30;99.90;;;;;;4974126;28;20034;-48
2023/04/24 02:26:54;;;;;;;2.40;2.20;;;13.20;99.90;;;;;;4972662;28;20023;-46
2023/04/24 02:29:40;;;;;;;3.60;2.40;;;13.20;99.90;;;;;;4962717;28;20041;-50
2023/04/24 02:32:26;;;;;;;2.75;2.20;;;13.10;99.90;;;;;;4975297;28;20023;-48
2023/04/24 02:35:12;;;;;;;3.88;2.28;;;13.10;99.90;;;;;;4974472;28;20031;-46
2023/04/24 02:37:58;;;;;;;4.72;2.70;;;13.00;99.90;;;;;;4972378;28;20039;-45
2023/04/24 02:40:44;;;;;;;3.15;2.60;;;12.90;99.90;;;;;;4970854;28;20024;-46
2023/04/24 02:43:30;;;;;;;2.75;2.50;;;12.80;99.90;;;;;;4952869;29;20082;-47
2023/04/24 02:46:15;;;;;;;6.72;2.42;;;12.70;99.90;;;;;;4953459;28;20035;-48
2023/04/24 02:49:02;;;;;;;2.50;2.30;;;12.70;99.90;;;;;;4954620;28;20036;-50
2023/04/24 02:51:48;;;;;;;3.20;2.33;;;12.70;99.90;;;;;;4972578;28;20511;-46
2023/04/24 02:54:34;;;;;;;4.43;2.53;;;12.60;99.90;;;;;;4972116;28;20035;-46
2023/04/24 02:57:20;;;;;;;3.33;2.70;;;12.70;99.90;;;;;;4973918;28;20042;-46
2023/04/24 03:00:07;;;;;;;2.35;2.10;;;12.60;99.90;;;;;;4975837;28;20039;-47
2023/04/24 03:02:53;;;;;;;3.55;2.70;;;12.50;99.90;;;;;;4963087;28;20035;-47
2023/04/24 03:05:39;;;;;;;3.42;2.50;;;12.60;99.90;;;;;;4975225;28;20031;-46
2023/04/24 03:08:25;;;;;;;3.00;2.55;;;12.60;99.90;;;;;;4975138;28;20459;-46
2023/04/24 03:11:10;;;;;;;2.67;2.40;;;12.50;99.90;;;;;;4975270;28;20034;-49
2023/04/24 03:13:56;;;;;;;4.20;2.53;;;12.50;99.90;;;;;;4976068;28;20043;-46
2023/04/24 03:16:42;;;;;;;3.55;2.40;;;12.50;99.90;;;;;;4976340;28;20172;-48
2023/04/24 03:19:28;;;;;;;4.35;2.83;;;12.50;99.90;;;;;;4976954;28;20066;-52
2023/04/24 03:22:14;;;;;;;3.97;2.55;;;12.50;99.90;;;;;;4975659;28;20042;-46
2023/04/24 03:25:01;;;;;;;4.20;2.70;;;12.40;99.90;;;;;;4974890;28;20531;-47
2023/04/24 03:27:46;;;;;;;3.85;2.60;;;12.40;99.90;;;;;;4974360;28;20039;-49
2023/04/24 03:30:32;;;;;;;4.32;2.65;;;12.40;99.90;;;;;;4960975;28;20035;-46
2023/04/24 03:33:18;;;;;;;4.30;2.55;;;12.40;99.90;;;;;;4967267;28;20030;-47
2023/04/24 03:36:04;;;;;;;3.10;2.50;;;12.40;99.90;;;;;;4947809;28;20158;-49
2023/04/24 03:38:50;;;;;;;6.15;2.70;;;12.40;99.90;;;;;;4967287;28;20027;-46
2023/04/24 03:41:36;;;;;;;3.70;2.78;;;12.40;99.90;;;;;;4977060;28;20035;-49
2023/04/24 03:44:22;;;;;;;2.53;2.28;;;12.40;99.90;;;;;;4974733;28;20031;-46
2023/04/24 03:47:08;;;;;;;3.35;2.75;;;12.40;99.90;;;;;;4970328;28;20161;-47
2023/04/24 03:49:55;;;;;;;4.97;2.65;;;12.40;99.90;;;;;;4967271;28;20026;-47
2023/04/24 03:52:41;;;;;;;3.28;2.17;;;12.50;99.90;;;;;;4969137;28;20094;-47
2023/04/24 03:55:27;;;;;;;3.25;2.50;;;12.40;99.90;;;;;;4974042;28;20077;-48
2023/04/24 03:58:14;;;;;;;3.97;2.33;;;12.40;99.90;;;;;;4973851;28;20054;-47
2023/04/24 04:01:00;;;;;;;2.70;2.50;;;12.50;99.90;;;;;;4982015;28;20035;-47
2023/04/24 04:03:46;;;;;;;2.75;2.30;;;12.50;99.90;;;;;;4969267;28;20027;-48
2023/04/24 04:06:32;;;;;;;3.60;2.35;;;12.50;99.90;;;;;;4972749;28;20062;-48
2023/04/24 04:09:18;;;;;;;3.30;2.40;;;12.50;99.90;;;;;;4973535;28;20164;-46
2023/04/24 04:12:04;;;;;;;3.28;2.40;;;12.50;99.90;;;;;;4974319;28;20027;-47
2023/04/24 04:14:50;;;;;;;3.55;2.38;;;12.50;99.90;;;;;;4973899;28;20035;-46
2023/04/24 04:17:37;;;;;;;3.47;2.30;;;12.50;99.90;;;;;;4974242;28;20031;-48
2023/04/24 04:20:23;;;;;;;2.67;2.35;;;12.50;99.90;;;;;;4954191;28;20039;-48
2023/04/24 04:23:09;;;;;;;2.40;2.20;;;12.50;99.90;;;;;;4968129;28;20035;-45
2023/04/24 04:25:55;;;;;;;2.75;2.47;;;12.40;99.90;;;;;;4973476;28;20142;-45
2023/04/24 04:28:41;;;;;;;2.67;2.40;;;12.40;99.90;;;;;;4957095;28;20042;-47
2023/04/24 04:31:27;;;;;;;2.42;2.20;;;12.40;99.90;;;;;;4966734;28;20110;-46
2023/04/24 04:34:13;;;;;;;3.90;2.38;;;12.60;99.90;;;;;;4965139;28;20110;-46
2023/04/24 04:37:01;;;;;;;2.83;2.28;;;12.60;99.90;;;;;;4973606;28;20039;-47
2023/04/24 04:39:47;;;;;;;3.45;2.40;;;12.60;99.90;;;;;;4973399;28;20118;-46
2023/04/24 04:42:34;;;;;;;3.85;2.88;;;12.60;99.90;;;;;;4973693;28;20027;-47
2023/04/24 04:45:20;;;;;;;2.92;2.63;;;12.70;99.90;;;;;;4966576;28;20042;-51
2023/04/24 04:48:07;;;;;;;5.15;2.70;;;12.70;99.90;;;;;;4976951;28;20039;-45
2023/04/24 04:50:53;;;;;;;4.63;2.90;;;12.80;99.90;;;;;;4969302;28;20031;-50
2023/04/24 04:53:39;;;;;;;5.15;2.60;;;12.90;99.90;;;;;;4974634;28;20041;-47
2023/04/24 04:56:25;;;;;;;2.83;2.53;;;13.00;99.90;;;;;;4972874;28;20105;-47
2023/04/24 04:59:12;;;;;;;4.55;2.63;;;13.00;99.90;;;;;;4973183;28;20023;-45
2023/04/24 05:01:58;;;;;;;2.83;2.50;;;13.00;99.90;;;;;;4975362;28;20062;-45
2023/04/24 05:04:44;;;;;;;3.55;2.78;;;13.00;99.90;;;;;;4976066;28;20026;-46
2023/04/24 05:07:30;;;;;;;5.22;2.83;;;13.10;99.90;;;;;;4983166;28;20038;-48
2023/04/24 05:10:16;;;;;;;6.57;5.22;;;13.00;99.90;;;;;;4973193;28;20075;-49
2023/04/24 05:13:04;;;;;;;4.25;2.80;;;13.00;99.90;;;;;;4972794;28;20034;-49
2023/04/24 05:15:50;;;;;;;6.18;3.05;;;13.00;99.90;;;;;;4972794;28;20039;-46
2023/04/24 05:18:36;;;;;;;3.78;3.30;;;12.90;99.90;;;;;;4947344;28;20082;-51
2023/04/24 05:21:22;;;;;;;6.07;2.65;;;12.90;99.90;;;;;;4968809;28;20039;-47
2023/04/24 05:24:08;;;;;;;3.30;3.00;;;13.00;99.90;;;;;;4974133;28;20101;-46
2023/04/24 05:26:53;;;;;;;3.70;2.95;;;13.00;99.90;;;;;;4969948;28;20034;-50
2023/04/24 05:29:40;;;;;;;4.55;2.70;;;13.00;99.90;;;;;;4974496;28;20117;-46
2023/04/24 05:32:26;;;;;;;4.10;2.80;;;13.10;99.90;;;;;;4971886;28;20041;-50
2023/04/24 05:35:12;;;;;;;4.43;2.88;;;13.10;99.90;;;;;;4962205;28;20027;-47
2023/04/24 05:37:58;;;;;;;3.25;2.55;;;13.10;99.90;;;;;;4972520;28;20133;-47
2023/04/24 05:40:45;;;;;;;4.30;2.88;;;13.20;99.90;;;;;;4971478;28;20031;-46
2023/04/24 05:43:31;;;;;;;4.28;2.92;;;13.30;99.90;;;;;;4972861;28;20101;-46
2023/04/24 05:46:16;;;;;;;3.67;3.03;;;13.30;99.90;;;;;;4972776;28;20574;-47
2023/04/24 05:49:02;;;;;;;8.07;3.10;;;13.40;99.90;;;;;;4973015;28;20034;-51
2023/04/24 05:51:48;;;;;;;3.33;2.65;;;13.40;99.90;;;;;;4974378;28;20045;-48
2023/04/24 05:54:35;;;;;;;4.80;2.90;;;13.40;99.90;;;;;;4968052;28;20110;-51
2023/04/24 05:57:21;;;;;;;5.45;2.92;;;13.50;99.90;;;;;;4961697;28;20039;-46
2023/04/24 06:00:08;;;;;;;3.60;2.53;;;13.60;99.90;;;;;;4952984;28;20035;-52
2023/04/24 06:02:55;;;;;;;6.10;2.90;;;13.60;99.90;;;;;;4970978;28;20500;-50
2023/04/24 06:05:41;;;;;;;3.25;2.72;;;13.70;99.90;;;;;;4971957;28;20031;-50
2023/04/24 06:08:26;;;;;;;4.28;2.50;;;13.70;99.90;;;;;;4959403;28;20577;-47
2023/04/24 06:11:12;;;;;;;3.15;2.45;;;13.70;99.90;;;;;;4964581;28;20035;-48
2023/04/24 06:13:58;;;;;;;3.97;2.50;;;13.80;99.90;;;;;;4972470;28;20062;-47
2023/04/24 06:16:44;;;;;;;3.63;3.03;;;13.80;99.90;;;;;;4971819;28;20114;-48
2023/04/24 06:19:30;;;;;;;5.07;2.50;;;13.80;99.90;;;;;;4972129;28;20042;-51
2023/04/24 06:22:16;;;;;;;4.68;2.72;;;13.90;99.90;;;;;;4972339;28;20042;-47
2023/04/24 06:25:02;;;;;;;5.22;2.80;;;13.90;99.90;;;;;;4972262;28;20500;-51
2023/04/24 06:27:48;;;;;;;4.05;2.83;;;13.90;99.90;;;;;;4970437;28;20034;-46
2023/04/24 06:30:34;;;;;;;3.95;2.53;;;13.80;99.90;;;;;;4976403;28;20037;-46
2023/04/24 06:33:20;;;;;;;8.55;2.90;;;13.80;99.90;;;;;;4962319;28;20062;-50
2023/04/24 06:36:06;;;;;;;5.38;2.83;;;13.90;99.90;;;;;;4975501;28;20038;-52
2023/04/24 06:38:52;;;;;;;13.18;3.58;;;13.90;99.90;;;;;;4967115;28;20054;-50
2023/04/24 06:41:39;;;;;;;7.43;2.90;;;13.80;99.90;;;;;;4976202;28;20420;-47
2023/04/24 06:44:25;;;;;;;4.68;2.70;;;13.80;99.90;;;;;;4957883;28;20028;-49
2023/04/24 06:47:13;;;;;;;5.15;2.63;;;13.80;99.90;;;;;;4956273;28;20083;-46
2023/04/24 06:49:59;;;;;;;5.25;2.92;;;13.80;99.90;;;;;;4974196;28;20041;-50
2023/04/24 06:52:45;;;;;;;3.13;2.65;;;13.80;99.90;;;;;;4977363;28;20031;-46
2023/04/24 06:55:31;;;;;;;4.03;2.75;;;13.90;99.90;;;;;;4976314;28;20071;-47
2023/04/24 06:58:17;;;;;;;5.38;2.53;;;13.80;99.90;;;;;;4977450;28;20039;-47
2023/04/24 07:01:03;;;;;;;4.07;2.53;;;13.80;99.90;;;;;;4977507;28;20416;-47
2023/04/24 07:03:49;;;;;;;3.88;2.25;;;13.80;99.90;;;;;;4975841;28;20027;-49
2023/04/24 07:06:35;;;;;;;2.75;2.33;;;13.80;99.90;;;;;;4975195;28;20159;-49
2023/04/24 07:09:23;;;;;;;3.53;2.60;;;14.00;99.90;;;;;;4960699;28;20058;-49
2023/04/24 07:12:10;;;;;;;3.00;2.28;;;14.00;99.90;;;;;;4973735;28;20035;-51
2023/04/24 07:14:56;;;;;;;3.75;2.83;;;13.90;99.90;;;;;;4974520;28;20522;-50
2023/04/24 07:17:45;;;;;;;3.88;2.50;;;14.00;99.90;;;;;;4958251;28;20489;-46
2023/04/24 07:20:31;;;;;;;4.25;2.60;;;14.20;99.90;;;;;;4959036;28;20035;-50
2023/04/24 07:23:19;;;;;;;4.72;2.55;;;14.20;99.90;;;;;;4975091;28;20530;-50
2023/04/24 07:26:06;;;;;;;4.97;2.40;;;14.20;99.90;;;;;;4973986;28;20499;-51
2023/04/24 07:28:52;;;;;;;4.10;2.50;;;14.30;99.90;;;;;;4974579;28;20065;-48
2023/04/24 07:31:37;;;;;;;6.78;2.65;;;14.40;99.90;;;;;;4975284;28;20113;-49
2023/04/24 07:34:23;;;;;;;5.75;2.58;;;14.60;99.90;;;;;;4972260;28;20035;-47
2023/04/24 07:37:10;;;;;;;4.28;2.40;;;14.90;99.90;;;;;;4974918;28;20027;-49
2023/04/24 07:39:56;;;;;;;3.92;2.50;;;14.90;99.90;;;;;;4974502;28;20537;-53
2023/04/24 07:42:42;;;;;;;3.17;2.30;;;14.90;99.90;;;;;;4975134;28;20031;-47
2023/04/24 07:45:28;;;;;;;3.55;2.28;;;14.50;99.90;;;;;;4975027;28;20046;-50
2023/04/24 07:48:16;;;;;;;4.70;2.63;;;14.50;99.90;;;;;;4974319;28;20515;-49
2023/04/24 07:51:02;;;;;;;2.40;2.20;;;14.60;99.90;;;;;;4976856;28;20033;-50
2023/04/24 07:53:48;;;;;;;5.60;2.40;;;14.50;99.90;;;;;;4975073;28;20037;-52
2023/04/24 07:56:34;;;;;;;2.78;2.33;;;14.70;99.90;;;;;;4975014;28;20123;-51
2023/04/24 07:59:20;;;;;;;3.85;2.33;;;14.70;99.90;;;;;;4973118;28;20414;-52
2023/04/24 08:02:06;;;;;;;3.72;2.40;;;14.70;99.90;;;;;;4975117;28;20507;-44
2023/04/24 08:04:55;;;;;;;5.22;2.60;;;14.80;99.90;;;;;;4954550;28;20085;-45
2023/04/24 08:07:46;;;;;;;5.05;2.33;;;14.70;99.90;;;;;;4955114;28;20508;-48
2023/04/24 08:10:31;;;;;;;4.10;2.20;;;14.70;99.90;;;;;;4973994;28;20027;-46
2023/04/24 08:13:17;;;;;;;3.92;1.98;;;15.00;99.90;;;;;;4975056;28;20023;-45
2023/04/24 08:16:03;;;;;;;4.55;2.40;;;14.90;99.90;;;;;;4955577;28;20487;-46
2023/04/24 08:18:50;;;;;;;3.28;2.30;;;14.80;99.90;;;;;;4957043;28;20074;-43
2023/04/24 08:21:36;;;;;;;4.53;2.40;;;14.80;99.90;;;;;;4974550;28;20380;-50
2023/04/24 08:24:22;;;;;;;2.58;2.30;;;15.00;99.90;;;;;;4962665;28;20042;-51
2023/04/24 08:27:09;;;;;;;4.50;2.63;;;15.10;99.90;;;;;;4976200;28;20035;-52
2023/04/24 08:29:57;;;;;;;3.70;2.20;;;15.00;99.90;;;;;;4974714;28;20045;-52
2023/04/24 08:32:43;;;;;;;4.05;2.53;;;15.00;99.90;;;;;;4976146;28;20038;-45
2023/04/24 08:35:29;;;;;;;2.92;2.53;;;15.00;99.50;;;;;;4975390;28;20039;-47
2023/04/24 08:38:15;;;;;;;3.78;2.50;;;14.90;99.10;;;;;;4974180;28;20084;-45
2023/04/24 08:41:01;;;;;;;2.70;2.30;;;14.90;98.70;;;;;;4973853;28;20085;-50
2023/04/24 08:43:48;;;;;;;5.20;2.28;;;14.80;98.70;;;;;;4973106;28;20034;-48
2023/04/24 08:46:34;;;;;;;3.35;2.17;;;14.60;98.90;;;;;;4974317;28;20037;-47
2023/04/24 08:49:21;;;;;;;3.20;2.40;;;14.60;99.20;;;;;;4967710;28;20039;-46
2023/04/24 08:52:07;;;;;;;3.90;2.22;;;14.60;99.40;;;;;;4972847;28;20034;-48
2023/04/24 08:54:54;;;;;;;7.45;2.70;;;14.60;99.40;;;;;;4974863;28;20096;-44
2023/04/24 08:57:41;;;;;;;3.75;2.58;;;14.70;98.20;;;;;;4973989;28;20407;-49
2023/04/24 09:00:27;;;;;;;8.07;2.85;;;14.60;97.70;;;;;;4973008;28;20082;-44
2023/04/24 09:03:16;;;;;;;4.07;2.67;;;14.70;97.80;;;;;;4978651;28;20027;-47
2023/04/24 09:06:03;;;;;;;7.18;3.03;;;14.80;98.10;;;;;;4942181;28;20083;-46
2023/04/24 09:08:52;;;;;;;3.53;2.33;;;14.80;96.40;;;;;;4962601;28;20038;-47
2023/04/24 09:11:38;;;;;;;4.85;2.65;;;15.10;96.30;;;;;;4978563;28;20039;-50
2023/04/24 09:14:25;;;;;;;3.08;2.33;;;15.30;94.40;;;;;;4982337;28;20035;-54
2023/04/24 09:17:12;;;;;;;2.65;2.30;;;15.00;94.20;;;;;;4972157;28;20598;-49
2023/04/24 09:19:58;;;;;;;3.78;2.20;;;14.90;93.30;;;;;;4938201;29;20086;-51
2023/04/24 09:22:45;;;;;;;3.22;2.22;;;15.00;93.20;;;;;;4972868;28;20380;-49
2023/04/24 09:25:37;;;;;;;6.80;2.75;;;15.10;93.10;;;;;;4969735;28;20546;-49
2023/04/24 09:28:30;;;;;;;3.20;2.65;;;15.00;93.30;;;;;;4969935;28;20166;-50
2023/04/24 09:31:21;;;;;;;2.88;2.42;;;15.10;93.20;;;;;;4972205;28;20035;-48
2023/04/24 09:34:07;;;;;;;2.80;2.30;;;15.40;92.50;;;;;;4970732;28;20065;-53
2023/04/24 09:36:54;;;;;;;4.93;2.30;;;15.50;92.60;;;;;;4970640;28;20097;-51
2023/04/24 09:39:40;;;;;;;3.45;2.80;;;15.60;91.50;;;;;;4971011;28;20058;-47
2023/04/24 09:42:29;;;;;;;4.82;2.63;;;15.50;90.30;;;;;;4975923;28;20034;-46
2023/04/24 09:45:15;;;;;;;11.55;2.60;;;15.30;90.90;;;;;;4972196;28;20034;-48
2023/04/24 09:48:01;;;;;;;3.40;2.22;;;15.40;90.90;;;;;;4965677;28;20035;-48
2023/04/24 09:50:51;;;;;;;4.40;2.72;;;15.70;89.30;;;;;;4970044;28;20105;-53
2023/04/24 09:53:39;;;;;;;4.55;2.50;;;15.80;87.30;;;;;;4971842;28;20033;-51
2023/04/24 09:56:26;;;;;;;3.97;2.60;;;15.70;88.30;;;;;;4964225;28;20542;-46
2023/04/24 09:59:19;;;;;;;3.78;2.60;;;15.50;86.80;;;;;;4971090;28;20081;-48
2023/04/24 10:02:17;;;;;;;3.72;2.60;;;15.50;87.20;;;;;;4956438;28;20031;-45
2023/04/24 10:05:03;;;;;;;2.85;2.55;;;15.50;88.10;;;;;;4956681;28;20495;-45
2023/04/24 10:07:49;;;;;;;3.10;2.80;;;15.50;88.10;;;;;;4957467;28;20023;-44
2023/04/24 10:10:41;;;;;;;4.07;2.63;;;15.40;89.50;;;;;;4972199;28;20019;-45
2023/04/24 10:13:28;;;;;;;4.57;2.50;;;15.10;88.90;;;;;;4967452;28;20023;-45
2023/04/24 10:16:14;;;;;;;5.40;2.50;;;15.00;88.60;;;;;;4964383;28;20113;-46
2023/04/24 10:19:00;;;;;;;3.53;2.80;;;15.20;88.70;;;;;;4958392;28;20178;-52
2023/04/24 10:21:47;;;;;;;4.25;2.50;;;15.30;89.50;;;;;;4972840;28;20043;-45
2023/04/24 10:24:35;;;;;;;3.88;2.90;;;15.40;89.50;;;;;;4951631;28;20508;-52
2023/04/24 10:27:21;;;;;;;4.20;2.65;;;15.30;88.00;;;;;;4951178;28;20087;-47
2023/04/24 10:30:08;;;;;;;4.18;2.80;;;15.20;89.00;;;;;;4954386;28;20031;-47
2023/04/24 10:32:54;;;;;;;4.32;2.55;;;15.20;89.30;;;;;;4970441;28;20045;-46
2023/04/24 10:35:48;;;;;;;3.65;2.67;;;15.00;88.40;;;;;;4962073;28;20031;-47
2023/04/24 10:38:36;;;;;;;3.45;2.40;;;15.30;87.60;;;;;;4951544;28;20400;-44
2023/04/24 10:41:25;;;;;;;3.35;2.53;;;15.30;89.30;;;;;;4969464;28;20072;-46
2023/04/24 10:44:16;;;;;;;2.78;2.47;;;15.50;87.70;;;;;;4972021;28;20019;-48
2023/04/24 10:47:01;;;;;;;4.35;2.50;;;15.30;87.60;;;;;;4970918;28;20063;-46
2023/04/24 10:49:51;;;;;;;4.45;2.90;;;15.10;88.10;;;;;;4973511;28;20038;-48
2023/04/24 10:52:45;;;;;;;5.57;3.20;;;15.00;88.50;;;;;;4964853;28;20362;-53
2023/04/24 10:55:44;;;;;;;3.78;2.80;;;14.90;88.60;;;;;;4963461;28;20500;-44
2023/04/24 10:58:44;;;;;;;3.92;2.50;;;15.00;87.70;;;;;;4977597;28;20100;-45
2023/04/24 11:01:32;;;;;;;3.60;2.72;;;15.10;87.20;;;;;;4963851;28;20039;-50
2023/04/24 11:04:32;;;;;;;9.43;3.65;;;15.20;87.50;;;;;;4958264;28;20411;-46
2023/04/24 11:07:20;;;;;;;2.50;2.30;;;15.30;87.90;;;;;;4969788;28;20050;-47
2023/04/24 11:10:07;;;;;;;5.25;2.95;;;15.40;86.70;;;;;;4971175;28;20401;-48
2023/04/24 11:12:53;;;;;;;2.80;2.60;;;15.30;87.20;;;;;;4971477;28;20447;-46
2023/04/24 11:15:42;;;;;;;4.22;2.60;;;15.30;88.50;;;;;;4967799;28;20049;-48
2023/04/24 11:18:37;;;;;;;4.47;2.75;;;15.40;86.70;;;;;;4975072;28;20114;-53
2023/04/24 11:21:23;;;;;;;;;;;15.40;84.90;;;;;;4975033;28;20030;-48
2023/04/24 11:24:39;;;;;;;2.53;2.28;;;15.40;83.10;;;;;;4975149;28;19910;-48
2023/04/24 11:27:31;;;;;;;3.00;2.38;;;15.30;84.60;;;;;;4974213;28;20026;-47
2023/04/24 11:30:19;;;;;;;2.88;2.58;;;15.30;84.00;;;;;;4966181;28;20090;-48
2023/04/24 11:33:05;;;;;;;2.65;2.35;;;15.40;84.60;;;;;;4955197;29;20496;-47
2023/04/24 11:35:52;;;;;;;2.63;2.30;;;15.50;84.20;;;;;;4955769;28;20027;-49
2023/04/24 11:38:39;;;;;;;2.97;2.67;;;15.60;85.60;;;;;;4956596;28;20023;-53
2023/04/24 11:41:26;;;;;;;3.28;2.88;;;15.80;84.50;;;;;;4974673;28;20110;-51
2023/04/24 11:44:14;;;;;;;5.78;2.90;;;15.80;83.00;;;;;;4974266;28;20023;-50
2023/04/24 11:47:00;;;;;;;4.90;2.90;;;15.50;85.20;;;;;;4974586;28;20090;-49
2023/04/24 11:49:46;;;;;;;3.42;2.97;;;15.80;86.00;;;;;;4975125;28;20097;-46
2023/04/24 11:52:36;;;;;;;3.95;2.90;;;15.90;84.70;;;;;;4975513;28;20082;-45
2023/04/24 11:55:25;;;;;;;5.57;3.10;;;15.80;84.90;;;;;;4974423;28;20031;-47
2023/04/24 11:58:11;;;;;;;3.10;2.80;;;15.70;84.60;;;;;;4967183;28;20020;-48
2023/04/24 12:01:01;;;;;;;4.75;3.05;;;16.00;83.30;;;;;;4955208;29;20027;-52
2023/04/24 12:03:59;;;;;;;6.57;3.20;;;16.20;83.10;;;;;;4973590;28;20423;-45
2023/04/24 12:07:13;;;;;;;3.78;2.75;;;16.00;82.80;;;;;;4964712;28;20644;-51
2023/04/24 12:09:59;;;;;;;6.05;3.28;;;15.80;83.50;;;;;;4972031;28;20126;-48
2023/04/24 12:12:46;;;;;;;4.32;2.95;;;15.70;83.10;;;;;;4972494;28;20015;-55
2023/04/24 12:15:32;;;;;;;5.00;3.60;;;15.50;82.40;;;;;;4972101;28;20056;-51
2023/04/24 12:18:18;;;;;;;3.42;3.13;;;15.50;83.60;;;;;;4971869;28;20356;-52
2023/04/24 12:21:21;;;;;;;4.43;3.00;;;15.60;83.70;;;;;;4972459;28;20046;-54
2023/04/24 12:24:07;;;;;;;2.90;2.70;;;15.70;82.60;;;;;;4974153;28;20034;-53
2023/04/24 12:26:53;;;;;;;3.47;2.75;;;15.90;82.90;;;;;;4973678;28;20043;-51
2023/04/24 12:29:57;;;;;;;3.15;2.70;;;16.10;81.50;;;;;;4972750;28;20102;-51
2023/04/24 12:32:48;;;;;;;7.22;2.70;;;15.90;81.70;;;;;;4972361;28;20031;-53
2023/04/24 12:35:35;;;;;;;7.93;3.33;;;16.00;81.10;;;;;;4942543;29;20035;-54
2023/04/24 12:38:26;;;;;;;3.88;2.90;;;16.00;82.40;;;;;;4954967;28;20027;-52
2023/04/24 12:41:14;;;;;;;5.55;3.10;;;15.90;83.90;;;;;;4962418;28;20027;-50
2023/04/24 12:44:00;;;;;;;4.38;3.20;;;16.00;84.00;;;;;;4959400;28;20570;-49
2023/04/24 12:46:45;;;;;;;4.05;3.10;;;16.20;82.60;;;;;;4973781;28;20061;-49
2023/04/24 12:49:32;;;;;;;4.07;3.17;;;16.30;81.70;;;;;;4970981;28;20030;-49
2023/04/24 12:52:22;;;;;;;4.22;3.05;;;16.10;82.20;;;;;;4964371;28;20101;-53
2023/04/24 12:55:09;;;;;;;5.13;2.80;;;16.10;83.40;;;;;;4972088;28;20035;-46
2023/04/24 12:57:55;;;;;;;4.80;3.00;;;16.40;81.90;;;;;;4954248;28;20031;-47
2023/04/24 13:00:43;;;;;;;3.63;2.58;;;16.60;80.40;;;;;;4953350;29;20122;-50
2023/04/24 13:03:29;;;;;;;3.95;2.60;;;16.60;80.30;;;;;;4956517;28;20677;-50
2023/04/24 13:06:15;;;;;;;3.17;2.88;;;16.60;80.10;;;;;;4961730;28;20028;-46
2023/04/24 13:09:01;;;;;;;2.90;2.60;;;16.70;79.80;;;;;;4973624;28;20031;-50
2023/04/24 13:11:47;;;;;;;3.05;2.60;;;16.50;79.10;;;;;;4962000;28;20035;-45
2023/04/24 13:14:33;;;;;;;3.85;2.72;;;16.30;80.00;;;;;;4979308;28;20030;-49
2023/04/24 13:17:20;;;;;;;3.45;2.95;;;16.10;81.70;;;;;;4978037;28;20043;-50
2023/04/24 13:20:06;;;;;;;6.30;2.97;;;16.10;82.40;;;;;;4962884;28;20135;-51
2023/04/24 13:22:52;;;;;;;3.40;2.75;;;16.30;83.20;;;;;;4953580;28;20509;-50
2023/04/24 13:25:38;;;;;;;3.20;2.78;;;16.20;83.10;;;;;;4953358;28;20047;-50
2023/04/24 13:28:25;;;;;;;6.72;3.00;;;15.90;82.60;;;;;;4952177;28;20400;-48
2023/04/24 13:31:11;;;;;;;3.55;2.85;;;15.90;84.10;;;;;;4952562;29;20059;-46
2023/04/24 13:33:57;;;;;;;3.92;2.70;;;16.00;83.90;;;;;;4954603;28;20069;-49
2023/04/24 13:36:43;;;;;;;4.45;2.90;;;15.70;84.50;;;;;;4959373;28;20038;-52
2023/04/24 13:39:29;;;;;;;4.88;2.80;;;15.50;85.40;;;;;;4973134;28;20118;-49
2023/04/24 13:42:15;;;;;;;4.63;2.78;;;15.50;85.70;;;;;;4972298;28;20031;-51
2023/04/24 13:45:01;;;;;;;4.03;2.80;;;15.30;85.00;;;;;;4947645;28;20118;-44
2023/04/24 13:47:47;;;;;;;4.25;2.75;;;15.10;85.40;;;;;;4952498;29;20023;-52
2023/04/24 13:50:33;;;;;;;3.28;2.70;;;15.00;86.60;;;;;;4967624;28;20381;-45
2023/04/24 13:53:19;;;;;;;3.22;2.88;;;15.40;86.20;;;;;;4974232;28;20105;-49
2023/04/24 13:56:05;;;;;;;3.58;2.70;;;15.70;85.70;;;;;;4972903;28;20488;-48
2023/04/24 13:58:51;;;;;;;4.10;2.70;;;15.90;86.70;;;;;;4970847;28;20023;-49
2023/04/24 14:01:37;;;;;;;6.30;2.95;;;16.00;85.60;;;;;;4953815;28;20115;-49
2023/04/24 14:04:23;;;;;;;4.07;2.75;;;15.90;86.70;;;;;;4955715;28;20152;-50
2023/04/24 14:07:09;;;;;;;7.30;3.15;;;15.80;87.90;;;;;;4957484;28;20403;-51
2023/04/24 14:09:55;;;;;;;4.22;3.22;;;15.60;88.00;;;;;;4972532;28;20034;-52
2023/04/24 14:12:41;;;;;;;5.45;3.63;;;15.50;88.30;;;;;;4972109;28;20504;-52
2023/04/24 14:15:27;;;;;;;8.13;3.17;;;15.50;90.00;;;;;;4971561;28;20451;-53
2023/04/24 14:18:13;;;;;;;3.70;2.55;;;15.40;90.10;;;;;;4972252;28;20106;-50
2023/04/24 14:21:00;;;;;;;12.13;3.38;;;15.30;90.40;;;;;;4972878;28;20553;-53
2023/04/24 14:23:46;;;;;;;3.92;2.30;;;15.20;90.60;;;;;;4971626;28;20499;-53
2023/04/24 14:26:32;;;;;;;3.10;2.00;;;15.00;90.50;;;;;;4971009;28;20122;-52
2023/04/24 14:29:19;;;;;;;4.28;2.45;;;15.00;91.20;;;;;;4973642;28;20057;-49
2023/04/24 14:32:05;;;;;;;3.83;2.33;;;14.90;91.50;;;;;;4956530;28;20118;-50